Latest Coastal Weather Observations for Onslow Airport

IDW60701

Issued at 7:32 am WST Thursday 2 July 2015 (issued every 10 minutes, with the page automatically refreshed every 10 minutes)

About coastal observations | Map of coastal stations | Coastal observations for WA | Marine services | Other Formats
Station Details ID: 005017 Name: ONSLOW AIRPORT Lat: -21.67 Lon: 115.11 Height: 10.5 m
Data from the previous 72 hours. | See also: Recent months at Onslow Airport
Date/Time
WST
Temp

°C
Wind Pressure Rain
since 9am
mm
Weather Cloud Vis
km
Sea
Height
m
Swell
Dir
 
Speed
knots
Gust
knots
hPa Trend Height
m
Period
s
Dir
02/07:30am 14.9 SE 7 7 1022.2 - 0.0 - - - - - - -
02/07:00am 13.2 ESE 5 7 1022.0 - 0.0 - - - - - - -
02/06:30am 13.6 E 8 10 1021.7 - 0.0 - - - - - - -
02/06:00am 14.3 SE 9 10 1021.5 - 0.0 - - - - - - -
02/05:30am 13.9 SE 8 9 1021.3 - 0.0 - - - - - - -
02/05:00am 14.1 ESE 6 9 1021.2 - 0.0 - - - - - - -
02/04:30am 13.5 SE 7 8 1021.4 - 0.0 - - - - - - -
02/04:00am 13.0 SE 7 9 1021.5 - 0.0 - - - - - - -
02/03:30am 12.9 SSE 8 9 1021.5 - 0.0 - - - - - - -
02/03:00am 12.5 SSE 7 8 1021.5 - 0.0 - - - - - - -
02/02:30am 13.8 SE 5 6 1021.8 - 0.0 - - - - - - -
02/02:00am 13.6 SE 7 8 1021.7 - 0.0 - - - - - - -
02/01:30am 14.1 SE 7 8 1021.8 - 0.0 - - - - - - -
02/01:00am 14.3 SE 7 8 1022.0 - 0.0 - - - - - - -
02/12:30am 14.4 SSE 8 9 1022.1 - 0.0 - - - - - - -
02/12:00am 14.7 SSE 8 9 1022.1 - 0.0 - - - - - - -
 
Date/Time
WST
Temp

°C
Wind Pressure Rain
since 9am
mm
Weather Cloud Vis
km
Sea
Height
m
Swell
Dir
 
Speed
knots
Gust
knots
hPa Trend Height
m
Period
s
Dir
01/11:30pm 14.2 SSE 7 8 1022.2 - 0.0 - - - - - - -
01/11:00pm 14.1 SE 7 8 1022.5 - 0.0 - - - - - - -
01/10:30pm 14.7 S 7 9 1022.4 - 0.0 - - - - - - -
01/10:00pm 15.6 W 8 9 1022.0 - 0.0 - - - - - - -
01/09:30pm 15.5 WSW 7 8 1022.1 - 0.0 - - - - - - -
01/09:00pm 16.0 W 2 5 1022.1 - 0.0 - - - - - - -
01/08:30pm 16.9 CALM 0 0 1022.0 - 0.0 - - - - - - -
01/08:00pm 16.8 NNE 3 4 1021.8 - 0.0 - - - - - - -
01/07:30pm 18.5 NNW 4 4 1021.6 - 0.0 - - - - - - -
01/07:00pm 19.0 N 4 5 1021.3 - 0.0 - - - - - - -
01/06:30pm 19.5 NW 4 5 1020.9 - 0.0 - - - - - - -
01/06:00pm 20.9 NNW 3 4 1020.6 - 0.0 - - - - - - -
01/05:30pm 22.5 NNW 4 5 1020.5 - 0.0 - - - - - - -
01/05:00pm 24.1 NNW 5 7 1020.4 - 0.0 - - - - - - -
01/04:30pm 25.3 N 7 9 1020.3 - 0.0 - - - - - - -
01/04:00pm 26.4 N 5 8 1020.2 - 0.0 - - - - - - -
01/03:30pm 26.4 N 7 9 1020.1 - 0.0 - - - - - - -
01/03:00pm 27.1 N 8 10 1020.1 - 0.0 - - - - - - -
01/02:30pm 26.9 NNE 9 12 1020.2 - 0.0 - - - - - - -
01/02:00pm 26.4 NNE 11 14 1020.4 - 0.0 - - - - - - -
01/01:30pm 26.7 NNE 12 16 1020.5 - 0.0 - - - - - - -
01/01:00pm 27.1 NNE 10 13 1020.7 - 0.0 - - - - - - -
01/12:30pm 26.7 NNE 10 14 1021.3 - 0.0 - - - - - - -
01/12:00pm 26.9 NE 11 14 1021.8 - 0.0 - - - - - - -
01/11:30am 27.0 NE 10 14 1022.2 - 0.0 - - - - - - -
01/11:00am 25.8 ENE 8 11 1022.4 - 0.0 - - - - - - -
01/10:30am 24.2 ENE 7 9 1022.7 - 0.0 - - - - - - -
01/10:00am 22.0 ENE 7 8 1023.0 - 0.0 - - - - - - -
01/09:30am 20.4 ENE 6 7 1023.0 - 0.0 - - - - - - -
01/09:00am 18.6 ESE 5 6 1022.9 - 0.0 - - - - - - -
01/08:30am 16.6 E 6 7 1022.8 - 0.0 - - - - - - -
01/08:00am 14.2 ESE 6 7 1022.5 - 0.0 - - - - - - -
01/07:30am 12.5 SE 5 6 1022.0 - 0.0 - - - - - - -
01/07:00am 11.1 S 5 6 1021.6 - 0.0 - - - - - - -
01/06:30am 11.0 SSE 5 6 1021.3 - 0.0 - - - - - - -
01/06:00am 11.3 SSE 7 8 1021.1 - 0.0 - - - - - - -
01/05:30am 11.3 SSE 8 8 1021.2 - 0.0 - - - - - - -
01/05:00am 11.6 SE 7 8 1021.2 - 0.0 - - - - - - -
01/04:30am 12.1 SSE 8 8 1021.1 - 0.0 - - - - - - -
01/04:00am 12.0 SE 7 8 1021.3 - 0.0 - - - - - - -
01/03:30am 12.4 SSE 8 9 1021.4 - 0.0 - - - - - - -
01/03:00am 12.7 SE 7 8 1021.4 - 0.0 - - - - - - -
01/02:30am 13.4 SSE 9 10 1021.5 - 0.0 - - - - - - -
01/02:00am 12.7 SE 7 9 1021.5 - 0.0 - - - - - - -
01/01:30am 13.4 SSE 6 8 1021.7 - 0.0 - - - - - - -
01/01:00am 13.3 SSE 7 7 1022.0 - 0.0 - - - - - - -
01/12:30am 13.4 SE 6 7 1022.0 - 0.0 - - - - - - -
01/12:00am 14.2 SE 6 7 1022.0 - 0.0 - - - - - - -
 
Date/Time
WST
Temp

°C
Wind Pressure Rain
since 9am
mm
Weather Cloud Vis
km
Sea
Height
m
Swell
Dir
 
Speed
knots
Gust
knots
hPa Trend Height
m
Period
s
Dir
30/11:30pm 14.6 SE 6 6 1022.1 - 0.0 - - - - - - -
30/11:00pm 15.0 SSE 7 9 1022.3 - 0.0 - - - - - - -
30/10:30pm 15.1 SSE 8 11 1022.5 - 0.0 - - - - - - -
30/10:00pm 16.0 SSE 5 8 1022.3 - 0.0 - - - - - - -
30/09:30pm 17.1 NNE 1 4 1022.2 - 0.0 - - - - - - -
30/09:00pm 16.8 NNE 4 6 1022.1 - 0.0 - - - - - - -
30/08:30pm 18.2 N 5 6 1022.0 - 0.0 - - - - - - -
30/08:00pm 18.9 N 4 5 1021.8 - 0.0 - - - - - - -
30/07:30pm 19.3 NNW 4 4 1021.7 - 0.0 - - - - - - -
30/07:00pm 18.4 NW 3 3 1021.5 - 0.0 - - - - - - -
30/06:30pm 19.0 N 4 5 1021.2 - 0.0 - - - - - - -
30/06:00pm 19.8 N 5 6 1020.7 - 0.0 - - - - - - -
30/05:30pm 21.8 N 7 8 1020.5 - 0.0 - - - - - - -
30/05:00pm 23.1 NNW 8 10 1020.4 - 0.0 - - - - - - -
30/04:30pm 23.7 NNW 10 12 1020.3 - 0.0 - - - - - - -
30/04:00pm 24.3 NNW 10 13 1020.2 - 0.0 - - - - - - -
30/03:30pm 24.8 N 12 15 1020.1 - 0.0 - - - - - - -
30/03:00pm 25.4 N 12 14 1020.1 - 0.0 - - - - - - -
30/02:30pm 25.6 N 12 15 1020.1 - 0.0 - - - - - - -
30/02:00pm 25.7 N 12 14 1020.5 - 0.0 - - - - - - -
30/01:30pm 25.9 N 12 15 1020.8 - 0.0 - - - - - - -
30/01:00pm 26.0 NNE 10 13 1021.3 - 0.0 - - - - - - -
30/12:30pm 26.4 NNE 10 13 1022.0 - 0.0 - - - - - - -
30/12:00pm 25.4 ENE 8 11 1022.5 - 0.0 - - - - - - -
30/11:30am 24.4 ENE 11 14 1022.9 - 0.0 - - - - - - -
30/11:00am 23.4 ENE 11 14 1023.5 - 0.0 - - - - - - -
30/10:30am 22.6 ENE 11 14 1023.9 - 0.0 - - - - - - -
30/10:00am 21.2 ENE 11 13 1024.0 - 0.0 - - - - - - -
30/09:30am 20.4 ENE 10 12 1023.9 - 0.0 - - - - - - -
30/09:00am 19.9 ENE 9 11 1023.9 - 0.0 - - - - - - -
30/08:30am 18.9 NE 9 11 1023.8 - 0.0 - - - - - - -
30/08:00am 17.7 NE 7 9 1023.5 - 0.0 - - - - - - -
30/07:30am 14.7 NE 6 7 1023.0 - 0.0 - - - - - - -
30/07:00am 14.3 ENE 4 5 1022.5 - 0.0 - - - - - - -
30/06:30am 14.1 E 4 5 1022.0 - 0.0 - - - - - - -
30/06:00am 14.0 E 5 6 1021.8 - 0.0 - - - - - - -
30/05:30am 13.4 ESE 8 9 1021.6 - 0.0 - - - - - - -
30/05:00am 13.7 SSE 6 7 1021.2 - 0.0 - - - - - - -
30/04:30am 14.3 SSE 6 7 1021.2 - 0.0 - - - - - - -
30/04:00am 14.2 SSE 7 8 1021.3 - 0.0 - - - - - - -
30/03:30am 14.0 ESE 8 9 1021.2 - 0.0 - - - - - - -
30/03:00am 14.6 E 5 6 1021.1 - 0.0 - - - - - - -
30/02:30am 14.6 ESE 3 4 1021.2 - 0.0 - - - - - - -
30/02:00am 14.7 SE 6 8 1021.4 - 0.0 - - - - - - -
30/01:30am 15.0 E 6 7 1021.7 - 0.0 - - - - - - -
30/01:00am 15.5 E 6 7 1021.8 - 0.0 - - - - - - -
30/12:30am 16.0 ESE 5 6 1022.0 - 0.0 - - - - - - -
30/12:00am 16.5 ESE 4 5 1022.1 - 0.0 - - - - - - -
 
Date/Time
WST
Temp

°C
Wind Pressure Rain
since 9am
mm
Weather Cloud Vis
km
Sea
Height
m
Swell
Dir
 
Speed
knots
Gust
knots
hPa Trend Height
m
Period
s
Dir
29/11:30pm 16.6 SSE 5 5 1022.2 - 0.0 - - - - - - -
29/11:00pm 16.6 ESE 4 4 1022.3 - 0.0 - - - - - - -
29/10:30pm 16.5 ENE 5 7 1022.2 - 0.0 - - - - - - -
29/10:00pm 16.4 NE 2 5 1022.0 - 0.0 - - - - - - -
29/09:30pm 16.9 SW 6 7 1021.9 - 0.0 - - - - - - -
29/09:00pm 17.6 SW 7 7 1021.8 - 0.0 - - - - - - -
29/08:30pm 17.7 W 6 7 1021.9 - 0.0 - - - - - - -
29/08:00pm 18.8 W 7 8 1021.5 - 0.0 - - - - - - -
29/07:30pm 18.0 W 5 7 1021.3 - 0.0 - - - - - - -
29/07:00pm 18.8 WNW 7 8 1021.1 - 0.0 - - - - - - -
29/06:30pm 18.9 W 6 8 1020.9 - 0.0 - - - - - - -
29/06:00pm 20.0 WNW 7 8 1020.8 - 0.0 - - - - - - -
29/05:30pm 22.0 WNW 7 9 1020.6 - 0.0 - - - - - - -
29/05:00pm 23.4 NW 7 9 1020.4 - 0.0 - - - - - - -
29/04:30pm 24.3 NW 8 9 1020.4 - 0.0 - - - - - - -
29/04:00pm 24.9 NW 7 9 1020.5 - 0.0 - - - - - - -
29/03:30pm 25.4 NNW 7 9 1020.7 - 0.0 - - - - - - -
29/03:00pm 25.7 NW 7 9 1020.9 - 0.0 - - - - - - -
29/02:30pm 26.0 NNW 8 9 1021.1 - 0.0 - - - - - - -
29/02:00pm 25.5 NNW 8 11 1021.5 - 0.0 - - - - - - -
29/01:30pm 26.6 N 8 12 1021.8 - 0.0 - - - - - - -
29/01:00pm 26.2 NNE 10 12 1022.2 - 0.0 - - - - - - -
29/12:30pm 26.0 NNE 9 12 1022.9 - 0.0 - - - - - - -
29/12:00pm 25.7 NE 10 13 1023.4 - 0.0 - - - - - - -
29/11:30am 25.4 NE 12 18 1023.7 - 0.0 - - - - - - -
29/11:00am 24.8 NE 14 18 1024.1 - 0.0 - - - - - - -
29/10:30am 24.0 ENE 15 18 1024.4 - 0.0 - - - - - - -
29/10:00am 22.6 ENE 15 18 1024.6 - 0.0 - - - - - - -
29/09:30am 21.6 ENE 13 16 1024.6 - 0.0 - - - - - - -
29/09:00am 20.0 ENE 12 15 1024.5 - 0.0 - - - - - - -
29/08:30am 18.6 E 12 14 1024.1 - 0.0 - - - - - - -
29/08:00am 16.9 E 6 11 1023.7 - 0.0 - - - - - - -

Other Formats:

Comma delimited format used in spreadsheet applications
http://www.bom.gov.au/fwo/IDW60701/IDW60701.95305.axf

JavaScript Object Notation format (JSON) in row-major order
http://www.bom.gov.au/fwo/IDW60701/IDW60701.95305.json